LKMT

Ostrava Leos Janáček Airport

Ostrava, Czech Republic
TAF LKMT 161700Z 1618/1800 20012KT 9999 BKN022 TEMPO 1700/1714 21014G28KT
Issued Valid From Valid To
Jan-16 @ 17:00 UTC
(an hour ago)
Jan-16 @ 18:00 UTC
(29 minutes ago)
Jan-18 @ 00:00 UTC
(-1 days ago)
Jan-16 @ 18:00 to Jan-18 @ 00:00
TAF LKMT 161700Z 1618/1800 20012KT 9999 BKN022
Wind Visibility Clouds
200° at 12 knots 10,000+ meters
  • Broken at 2,200' AGL
Temporary Jan-17 @ 00:00 to Jan-17 @ 14:00
TEMPO 1700/1714 21014G28KT
Wind
210° at 14 knots
 Gusting to 28 knots
TAF LKMT 161700Z 1618/1800 20012KT 9999 BKN022 TEMPO 1700/1714 21014G28KT
Issued Jan-16 @ 17:00 UTC
(an hour ago)
Valid From Jan-16 @ 18:00 UTC
(29 minutes ago)
Valid To Jan-18 @ 00:00 UTC
(-1 days ago)
Jan-16 @ 18:00 - Jan-18 @ 00:00
Wind Visibility
200° at 12 knots 10,000+ meters
Clouds
  • Broken at 2,200' AGL
Temporary Jan-17 @ 00:00 - Jan-17 @ 14:00
Wind
210° at 14 knots
 Gusting to 28 knots